createdAt,value
2023-04-09T00:01:26.347Z,44.60
2023-04-09T00:04:52.853Z,40.80
2023-04-09T00:08:19.798Z,46.40
2023-04-09T00:11:46.407Z,48.70
2023-04-09T00:15:30.029Z,41.30
2023-04-09T00:19:03.025Z,44.30
2023-04-09T00:22:29.833Z,44.50
2023-04-09T00:25:56.747Z,41.50
2023-04-09T00:29:23.524Z,44.80
2023-04-09T00:32:50.303Z,45.70
2023-04-09T00:36:17.283Z,43.20
2023-04-09T00:39:43.856Z,42.00
2023-04-09T00:43:10.103Z,40.60
2023-04-09T00:46:36.747Z,47.70
2023-04-09T00:50:04.521Z,44.40
2023-04-09T00:53:32.301Z,46.90
2023-04-09T00:56:58.991Z,45.10
2023-04-09T01:00:25.906Z,45.10
2023-04-09T01:03:53.283Z,45.90
2023-04-09T01:07:27.562Z,51.80
2023-04-09T01:11:01.242Z,43.60
2023-04-09T01:14:36.591Z,45.30
2023-04-09T01:18:11.822Z,48.00
2023-04-09T01:21:40.563Z,43.70
2023-04-09T01:25:21.251Z,43.60
2023-04-09T01:28:50.553Z,40.60
2023-04-09T01:32:20.858Z,45.70
2023-04-09T01:35:49.926Z,40.70
2023-04-09T01:39:17.523Z,39.10
2023-04-09T01:42:44.746Z,46.10
2023-04-09T01:46:12.440Z,43.10
2023-04-09T01:49:39.969Z,42.60
2023-04-09T01:53:07.297Z,46.00
2023-04-09T01:56:44.479Z,42.10
2023-04-09T02:00:14.771Z,44.80
2023-04-09T02:03:48.724Z,44.30
2023-04-09T02:07:39.741Z,46.50
2023-04-09T02:11:11.390Z,49.50
2023-04-09T02:14:39.595Z,55.50
2023-04-09T02:18:06.579Z,53.00
2023-04-09T02:21:33.395Z,54.20
2023-04-09T02:25:00.208Z,50.90
2023-04-09T02:28:26.880Z,52.30
2023-04-09T02:31:53.778Z,47.00
2023-04-09T02:35:20.973Z,49.40
2023-04-09T02:38:47.454Z,64.20
2023-04-09T02:42:14.141Z,65.00
2023-04-09T02:45:40.871Z,47.60
2023-04-09T02:49:07.528Z,45.10
2023-04-09T02:52:34.311Z,46.50
2023-04-09T02:56:01.092Z,50.50
2023-04-09T02:59:29.161Z,54.20
2023-04-09T03:02:56.325Z,57.10
2023-04-09T03:06:23.167Z,53.30
2023-04-09T03:09:49.809Z,54.70
2023-04-09T03:13:16.967Z,55.10
2023-04-09T03:16:43.510Z,49.10
2023-04-09T03:20:11.664Z,57.10
2023-04-09T03:23:38.701Z,52.00
2023-04-09T03:27:06.120Z,61.50
2023-04-09T03:30:32.878Z,46.80
2023-04-09T03:34:01.663Z,43.80
2023-04-09T03:37:29.840Z,42.20
2023-04-09T03:40:57.469Z,43.30
2023-04-09T03:44:24.158Z,45.10
2023-04-09T03:48:09.446Z,41.20
2023-04-09T03:51:36.930Z,43.50
2023-04-09T03:55:06.548Z,44.20
2023-04-09T03:58:33.131Z,41.60
2023-04-09T04:02:00.504Z,51.70
2023-04-09T04:05:28.440Z,48.00
2023-04-09T04:08:56.886Z,50.50
2023-04-09T04:12:33.196Z,49.90
2023-04-09T04:16:10.854Z,48.20
2023-04-09T04:19:38.771Z,53.30
2023-04-09T04:23:06.861Z,60.30
2023-04-09T04:26:35.552Z,49.30
2023-04-09T04:30:03.430Z,51.60
2023-04-09T04:33:37.537Z,56.00
2023-04-09T04:37:07.375Z,61.30
2023-04-09T04:40:34.189Z,51.70
2023-04-09T04:44:02.412Z,56.00
2023-04-09T04:47:29.518Z,55.70
2023-04-09T04:51:03.172Z,53.60
2023-04-09T04:54:37.188Z,56.90
2023-04-09T04:58:03.607Z,51.80
2023-04-09T05:01:38.350Z,45.70
2023-04-09T05:05:09.386Z,52.10
2023-04-09T05:08:40.769Z,52.00
2023-04-09T05:12:08.184Z,52.50
2023-04-09T05:15:41.862Z,51.50
2023-04-09T05:19:09.549Z,55.90
2023-04-09T05:22:37.566Z,55.30
2023-04-09T05:26:04.406Z,50.80
2023-04-09T05:29:43.018Z,53.40
2023-04-09T05:33:09.956Z,57.10
2023-04-09T05:36:36.684Z,55.30
2023-04-09T05:40:03.963Z,56.50
2023-04-09T05:43:31.020Z,55.00
2023-04-09T05:46:58.216Z,61.60
2023-04-09T05:50:30.403Z,54.90
2023-04-09T05:53:59.619Z,50.80
2023-04-09T05:57:33.387Z,47.10
2023-04-09T06:01:03.888Z,46.30
2023-04-09T06:04:30.475Z,44.10
2023-04-09T06:07:57.240Z,47.70
2023-04-09T06:11:24.428Z,43.70
2023-04-09T06:14:52.302Z,40.80
2023-04-09T06:18:18.506Z,44.70
2023-04-09T06:21:45.668Z,48.50
2023-04-09T06:25:12.896Z,41.30
2023-04-09T06:28:40.314Z,42.60
2023-04-09T06:32:07.107Z,40.60
2023-04-09T06:35:33.792Z,40.30
2023-04-09T06:39:01.225Z,40.10
2023-04-09T06:42:28.436Z,46.60
2023-04-09T06:45:58.648Z,40.50
2023-04-09T06:49:24.999Z,40.90
2023-04-09T06:52:52.243Z,33.80
2023-04-09T06:56:18.936Z,31.10
2023-04-09T06:59:45.892Z,41.00
2023-04-09T07:03:13.660Z,34.60
2023-04-09T07:06:40.693Z,34.90
2023-04-09T07:10:08.977Z,37.80
2023-04-09T07:13:36.989Z,42.00
2023-04-09T07:17:03.901Z,38.80
2023-04-09T07:23:57.792Z,30.00
2023-04-09T07:27:25.894Z,29.10
2023-04-09T07:30:53.033Z,33.70
2023-04-09T07:34:19.998Z,28.10
2023-04-09T07:37:46.795Z,24.90
2023-04-09T07:41:15.538Z,25.60
2023-04-09T07:44:42.027Z,24.40
2023-04-09T07:48:10.162Z,24.00
2023-04-09T07:51:37.095Z,21.10
2023-04-09T07:55:04.397Z,20.10
2023-04-09T07:58:31.163Z,20.90
2023-04-09T08:01:57.802Z,19.90
2023-04-09T08:05:25.090Z,20.40
2023-04-09T08:08:51.710Z,16.30
2023-04-09T08:12:19.086Z,18.90
2023-04-09T08:15:45.643Z,21.40
2023-04-09T08:19:13.135Z,17.50
2023-04-09T08:22:41.318Z,21.80
2023-04-09T08:26:08.743Z,21.80
2023-04-09T08:29:35.840Z,24.00
2023-04-09T08:33:02.666Z,20.80
2023-04-09T08:36:29.950Z,20.00
2023-04-09T08:39:56.648Z,20.80
2023-04-09T08:43:37.382Z,19.80
2023-04-09T08:47:14.952Z,22.20
2023-04-09T08:50:41.876Z,20.70
2023-04-09T08:54:08.814Z,21.40
2023-04-09T08:57:40.705Z,20.70
2023-04-09T09:01:19.818Z,24.50
2023-04-09T09:04:51.144Z,22.90
2023-04-09T09:08:26.997Z,22.20
2023-04-09T09:11:55.092Z,21.90
2023-04-09T09:15:32.272Z,20.40
2023-04-09T09:18:59.268Z,20.00
2023-04-09T09:22:27.113Z,18.60
2023-04-09T09:25:53.577Z,19.30
2023-04-09T09:29:21.565Z,23.10
2023-04-09T09:32:47.965Z,21.40
2023-04-09T09:36:14.998Z,19.50
2023-04-09T09:39:47.149Z,19.60
2023-04-09T09:43:14.724Z,21.70
2023-04-09T09:46:42.715Z,18.50
2023-04-09T09:50:11.103Z,15.60
2023-04-09T09:53:39.462Z,15.60
2023-04-09T09:57:09.964Z,16.90
2023-04-09T10:00:39.208Z,15.90
2023-04-09T10:04:07.510Z,17.50
2023-04-09T10:07:35.113Z,16.50
2023-04-09T10:11:02.950Z,17.60
2023-04-09T10:14:31.275Z,15.70
2023-04-09T10:17:59.128Z,14.10
2023-04-09T10:21:36.724Z,16.10
2023-04-09T10:25:04.801Z,13.90
2023-04-09T10:28:32.471Z,15.00
2023-04-09T10:32:08.157Z,17.10
2023-04-09T10:35:34.819Z,17.10
2023-04-09T10:39:01.790Z,13.20
2023-04-09T10:42:34.688Z,17.30
2023-04-09T10:46:01.154Z,14.10
2023-04-09T10:49:28.839Z,16.60
2023-04-09T10:52:58.398Z,16.40
2023-04-09T10:56:25.523Z,13.50
2023-04-09T10:59:54.352Z,18.10
2023-04-09T11:03:29.828Z,13.40
2023-04-09T11:06:58.096Z,14.40
2023-04-09T11:10:24.605Z,14.00
2023-04-09T11:13:50.913Z,15.10
2023-04-09T11:17:18.636Z,15.40
2023-04-09T11:20:46.303Z,13.40
2023-04-09T11:24:15.211Z,14.40
2023-04-09T11:27:47.113Z,14.60
2023-04-09T11:31:13.879Z,15.80
2023-04-09T11:34:41.349Z,14.70
2023-04-09T11:38:11.727Z,16.20
2023-04-09T11:41:40.643Z,18.10
2023-04-09T11:45:09.821Z,17.30
2023-04-09T11:48:36.919Z,16.70
2023-04-09T11:52:05.217Z,14.70
2023-04-09T11:55:32.578Z,15.40
2023-04-09T11:59:01.356Z,17.40
2023-04-09T12:02:28.221Z,15.90
2023-04-09T12:05:55.179Z,15.50
2023-04-09T12:09:23.288Z,16.70
2023-04-09T12:12:50.889Z,17.60
2023-04-09T12:16:21.883Z,14.90
2023-04-09T12:19:51.956Z,16.80
2023-04-09T12:23:20.641Z,16.00
2023-04-09T12:26:48.917Z,17.80
2023-04-09T12:30:15.983Z,15.60
2023-04-09T12:33:43.305Z,19.00
2023-04-09T12:37:09.862Z,18.00
2023-04-09T12:40:37.061Z,19.20
2023-04-09T12:44:05.258Z,19.00
2023-04-09T12:47:31.935Z,17.80
2023-04-09T12:50:58.971Z,19.70
2023-04-09T12:54:25.182Z,19.60
2023-04-09T12:57:53.408Z,20.80
2023-04-09T13:01:20.087Z,23.90
2023-04-09T13:04:47.361Z,18.90
2023-04-09T13:08:14.266Z,23.40
2023-04-09T13:11:41.101Z,23.40
2023-04-09T13:15:09.247Z,23.50
2023-04-09T13:18:36.467Z,24.20
2023-04-09T13:22:03.320Z,25.70
2023-04-09T13:25:30.052Z,24.80
2023-04-09T13:28:56.901Z,26.20
2023-04-09T13:32:24.746Z,28.20
2023-04-09T13:35:52.437Z,24.50
2023-04-09T13:39:18.976Z,23.60
2023-04-09T13:42:45.949Z,23.90
2023-04-09T13:46:12.642Z,24.60
2023-04-09T13:49:39.898Z,25.60
2023-04-09T13:53:06.886Z,26.00
2023-04-09T13:56:33.848Z,26.40
2023-04-09T14:00:02.265Z,26.70
2023-04-09T14:03:31.877Z,30.20
2023-04-09T14:07:00.919Z,25.40
2023-04-09T14:10:27.820Z,31.00
2023-04-09T14:13:54.385Z,26.40
2023-04-09T14:17:21.412Z,27.20
2023-04-09T14:20:48.001Z,26.90
2023-04-09T14:24:14.697Z,25.20
2023-04-09T14:27:41.942Z,25.00
2023-04-09T14:31:08.900Z,27.10
2023-04-09T14:34:35.301Z,26.20
2023-04-09T14:38:04.667Z,24.60
2023-04-09T14:41:34.483Z,27.10
2023-04-09T14:45:00.923Z,25.70
2023-04-09T14:48:27.430Z,26.50
2023-04-09T14:51:54.792Z,26.70
2023-04-09T14:55:21.380Z,25.80
2023-04-09T14:58:48.421Z,32.50
2023-04-09T15:02:15.051Z,25.10
2023-04-09T15:05:41.610Z,23.90
2023-04-09T15:09:08.335Z,30.70
2023-04-09T15:12:35.880Z,28.90
2023-04-09T15:16:02.428Z,24.20
2023-04-09T15:19:32.485Z,24.80
2023-04-09T15:22:59.403Z,27.80
2023-04-09T15:26:27.492Z,25.80
2023-04-09T15:29:54.462Z,25.00
2023-04-09T15:33:21.285Z,27.30
2023-04-09T15:36:50.748Z,25.50
2023-04-09T15:40:17.880Z,28.30
2023-04-09T15:43:44.578Z,25.70
2023-04-09T15:47:11.244Z,25.10
2023-04-09T15:50:40.194Z,30.60
2023-04-09T15:54:06.898Z,25.10
2023-04-09T15:57:33.407Z,28.70
2023-04-09T16:01:00.220Z,27.40
2023-04-09T16:04:27.864Z,26.50
2023-04-09T16:07:55.943Z,26.10
2023-04-09T16:11:23.764Z,25.40
2023-04-09T16:14:50.829Z,27.30
2023-04-09T16:18:17.404Z,25.80
2023-04-09T16:21:45.766Z,26.20
2023-04-09T16:25:13.571Z,25.60
2023-04-09T16:28:42.966Z,27.70
2023-04-09T16:32:10.535Z,22.40
2023-04-09T16:35:39.409Z,26.00
2023-04-09T16:39:07.064Z,28.70
2023-04-09T16:42:34.981Z,32.40
2023-04-09T16:46:02.906Z,33.60
2023-04-09T16:49:30.013Z,30.60
2023-04-09T16:52:56.822Z,27.20
2023-04-09T16:56:23.488Z,32.30
2023-04-09T16:59:50.061Z,23.90
2023-04-09T17:03:17.290Z,27.40
2023-04-09T17:06:44.305Z,25.90
2023-04-09T17:10:12.918Z,26.30
2023-04-09T17:13:39.777Z,29.70
2023-04-09T17:17:07.610Z,29.80
2023-04-09T17:20:35.164Z,28.60
2023-04-09T17:24:06.027Z,24.30
2023-04-09T17:27:33.571Z,35.40
2023-04-09T17:31:04.976Z,28.60
2023-04-09T17:34:32.763Z,26.00
2023-04-09T17:37:59.497Z,29.00
2023-04-09T17:41:28.042Z,27.10
2023-04-09T17:44:54.875Z,31.40
2023-04-09T17:48:22.238Z,29.90
2023-04-09T17:51:49.501Z,31.20
2023-04-09T17:55:17.960Z,26.90
2023-04-09T17:58:44.902Z,28.90
2023-04-09T18:02:12.302Z,29.50
2023-04-09T18:05:39.607Z,28.40
2023-04-09T18:09:09.536Z,28.20
2023-04-09T18:12:36.339Z,32.40
2023-04-09T18:16:03.163Z,28.60
2023-04-09T18:19:29.630Z,28.10
2023-04-09T18:22:57.266Z,28.40
2023-04-09T18:26:24.469Z,26.80
2023-04-09T18:29:51.822Z,31.80
2023-04-09T18:33:18.502Z,28.20
2023-04-09T18:36:45.515Z,27.00
2023-04-09T18:40:22.103Z,27.00
2023-04-09T18:43:49.828Z,27.70
2023-04-09T18:47:16.871Z,29.00
2023-04-09T18:50:43.585Z,29.20
2023-04-09T18:54:10.569Z,28.80
2023-04-09T18:57:38.301Z,28.30
2023-04-09T19:01:13.111Z,31.30
2023-04-09T19:04:42.263Z,34.90
2023-04-09T19:08:11.152Z,34.70
2023-04-09T19:11:38.094Z,42.10
2023-04-09T19:15:06.652Z,42.10
2023-04-09T19:18:35.456Z,43.50
2023-04-09T19:22:02.391Z,42.60
2023-04-09T19:25:34.379Z,36.10
2023-04-09T19:29:01.488Z,30.10
2023-04-09T19:32:29.029Z,30.30
2023-04-09T19:35:57.292Z,22.30
2023-04-09T19:39:25.614Z,23.50
2023-04-09T19:42:54.485Z,23.80
2023-04-09T19:46:21.298Z,28.80
2023-04-09T19:49:51.491Z,21.40
2023-04-09T19:53:18.834Z,24.60
2023-04-09T19:56:45.801Z,21.60
2023-04-09T20:00:16.181Z,19.30
2023-04-09T20:03:44.216Z,24.20
2023-04-09T20:07:11.080Z,20.60
2023-04-09T20:10:43.190Z,27.80
2023-04-09T20:14:11.450Z,22.60
2023-04-09T20:17:38.696Z,22.10
2023-04-09T20:21:06.874Z,22.90
2023-04-09T20:24:34.146Z,23.60
2023-04-09T20:28:01.567Z,17.60
2023-04-09T20:31:28.896Z,17.00
2023-04-09T20:34:56.096Z,19.90
2023-04-09T20:38:22.871Z,22.20
2023-04-09T20:41:49.903Z,14.00
2023-04-09T20:45:17.191Z,11.50
2023-04-09T20:48:45.212Z,14.10
2023-04-09T20:52:12.297Z,11.00
2023-04-09T20:55:42.026Z,11.10
2023-04-09T20:59:08.962Z,12.70
2023-04-09T21:02:37.272Z,10.50
2023-04-09T21:06:04.313Z,11.30
2023-04-09T21:09:31.935Z,11.70
2023-04-09T21:12:58.675Z,13.20
2023-04-09T21:16:27.414Z,10.40
2023-04-09T21:19:56.943Z,11.60
2023-04-09T21:23:23.774Z,10.10
2023-04-09T21:26:52.309Z,10.10
2023-04-09T21:30:19.952Z,12.20
2023-04-09T21:33:47.097Z,14.00
2023-04-09T21:37:13.493Z,14.30
2023-04-09T21:40:41.058Z,12.90
2023-04-09T21:44:09.401Z,14.60
2023-04-09T21:47:36.162Z,14.10
2023-04-09T21:51:03.603Z,16.80
2023-04-09T21:54:30.323Z,16.10
2023-04-09T21:57:57.869Z,11.40
2023-04-09T22:01:29.437Z,12.40
2023-04-09T22:04:56.957Z,12.10
2023-04-09T22:08:24.881Z,11.60
2023-04-09T22:11:51.877Z,12.30
2023-04-09T22:15:18.682Z,12.50
2023-04-09T22:18:45.121Z,10.60
2023-04-09T22:22:14.274Z,15.10
2023-04-09T22:25:40.510Z,22.90
2023-04-09T22:29:07.804Z,22.60
2023-04-09T22:32:35.030Z,15.90
2023-04-09T22:36:01.983Z,12.50
2023-04-09T22:39:29.486Z,15.60
2023-04-09T22:42:55.829Z,11.60
2023-04-09T22:46:22.745Z,12.10
2023-04-09T22:49:53.478Z,16.70
2023-04-09T22:53:20.214Z,11.60
2023-04-09T22:56:46.985Z,9.80
2023-04-09T23:00:14.717Z,12.90
2023-04-09T23:03:41.965Z,11.00
2023-04-09T23:07:10.621Z,10.70
2023-04-09T23:10:38.323Z,8.30
2023-04-09T23:14:04.912Z,14.20
2023-04-09T23:17:31.697Z,12.50
2023-04-09T23:20:58.725Z,12.40
2023-04-09T23:24:25.882Z,10.30
2023-04-09T23:27:52.454Z,11.00
2023-04-09T23:31:18.893Z,10.30
2023-04-09T23:34:45.604Z,14.90
2023-04-09T23:38:12.450Z,14.40
2023-04-09T23:41:38.882Z,17.80
2023-04-09T23:45:07.061Z,20.30
2023-04-09T23:48:33.597Z,20.50
2023-04-09T23:52:00.250Z,15.50
2023-04-09T23:55:28.124Z,13.80
2023-04-09T23:58:54.974Z,12.30
